Time;durP1;ratioP1;P1;durP2;ratioP2;P2;SDS_P1;SDS_P2;PMS_P1;PMS_P2;Temp;Humidity;BMP_temperature;BMP_pressure;BME280_temperature;BME280_humidity;BME280_pressure;Samples;Min_cycle;Max_cycle;Signal;HPM_P1;HPM_P2
2023/04/01 00:01:08;;;;;;;2.22;1.88;;;23.70;45.00;;;;;;6127606;28;85366;-67
2023/04/01 00:04:09;;;;;;;1.60;1.30;;;23.70;44.90;;;;;;6126859;28;85579;-66
2023/04/01 00:07:10;;;;;;;1.55;1.30;;;23.70;44.80;;;;;;6127090;28;80446;-68
2023/04/01 00:10:11;;;;;;;3.33;2.03;;;23.70;44.60;;;;;;6127101;28;79913;-70
2023/04/01 00:13:11;;;;;;;3.03;1.83;;;23.80;44.70;;;;;;6126624;28;80379;-72
2023/04/01 00:16:12;;;;;;;2.15;1.50;;;23.80;44.70;;;;;;6127097;28;80459;-62
2023/04/01 00:19:12;;;;;;;2.80;1.70;;;23.80;44.60;;;;;;6126304;28;81378;-63
2023/04/01 00:22:13;;;;;;;2.58;1.40;;;23.80;44.50;;;;;;6118103;28;80791;-62
2023/04/01 00:25:14;;;;;;;2.25;1.40;;;23.80;44.40;;;;;;6128471;28;81717;-63
2023/04/01 00:28:14;;;;;;;2.03;1.60;;;23.80;44.60;;;;;;6125117;28;81365;-62
2023/04/01 00:31:15;;;;;;;2.03;1.40;;;23.80;44.60;;;;;;6126231;28;81600;-64
2023/04/01 00:34:16;;;;;;;1.55;1.23;;;23.80;44.60;;;;;;6109020;28;83266;-64
2023/04/01 00:37:16;;;;;;;1.45;1.15;;;23.80;44.40;;;;;;6125908;28;80341;-65
2023/04/01 00:40:17;;;;;;;1.30;1.20;;;23.80;44.30;;;;;;6108250;28;83676;-63
2023/04/01 00:43:21;;;;;;;4.70;1.40;;;23.80;44.20;;;;;;6108267;28;82795;-62
2023/04/01 00:46:22;;;;;;;2.35;1.27;;;23.80;44.10;;;;;;6109190;28;82061;-63
2023/04/01 00:49:22;;;;;;;3.70;1.40;;;23.80;44.10;;;;;;6111825;28;83649;-66
2023/04/01 00:52:23;;;;;;;2.63;1.58;;;23.80;44.00;;;;;;6112511;28;81791;-65
2023/04/01 00:55:24;;;;;;;1.83;1.40;;;23.80;44.00;;;;;;6114386;28;83862;-65
2023/04/01 00:58:25;;;;;;;1.63;1.40;;;23.80;44.00;;;;;;6130873;28;81801;-66
2023/04/01 01:01:25;;;;;;;1.75;1.20;;;23.80;44.00;;;;;;6111991;28;84013;-66
2023/04/01 01:04:26;;;;;;;1.70;1.10;;;23.80;44.00;;;;;;6118281;28;81921;-66
2023/04/01 01:07:26;;;;;;;2.45;1.60;;;23.80;43.90;;;;;;6131042;28;80450;-64
2023/04/01 01:10:27;;;;;;;2.17;1.33;;;23.80;43.90;;;;;;6112806;28;82478;-60
2023/04/01 01:13:28;;;;;;;2.50;1.23;;;23.80;43.90;;;;;;6112672;28;82976;-78
2023/04/01 01:16:28;;;;;;;2.33;1.40;;;23.80;43.90;;;;;;6131386;28;80414;-77
2023/04/01 01:19:29;;;;;;;2.80;1.48;;;23.80;43.80;;;;;;6113055;28;80450;-77
2023/04/01 01:22:30;;;;;;;2.03;1.48;;;23.80;43.80;;;;;;6121785;28;80399;-69
2023/04/01 01:25:30;;;;;;;1.95;1.20;;;23.80;43.80;;;;;;6112213;28;82239;-70
2023/04/01 01:28:31;;;;;;;1.80;1.30;;;23.80;43.80;;;;;;6129750;28;80624;-69
2023/04/01 01:31:31;;;;;;;1.67;1.30;;;23.80;43.90;;;;;;6127266;28;80715;-69
2023/04/01 01:34:32;;;;;;;1.80;1.15;;;23.80;43.80;;;;;;6127818;28;80344;-68
2023/04/01 01:37:33;;;;;;;2.42;1.40;;;23.80;43.80;;;;;;6127185;28;80385;-69
2023/04/01 01:40:34;;;;;;;1.23;1.10;;;23.80;43.80;;;;;;6097353;28;81719;-69
2023/04/01 01:43:34;;;;;;;3.22;1.33;;;23.80;43.60;;;;;;6109405;28;82905;-69
2023/04/01 01:46:35;;;;;;;2.88;1.30;;;23.80;43.60;;;;;;6128252;28;80633;-69
2023/04/01 01:49:35;;;;;;;1.52;0.95;;;23.80;43.60;;;;;;6129416;28;82551;-62
2023/04/01 01:52:36;;;;;;;1.10;1.00;;;23.80;43.50;;;;;;6129149;28;80543;-61
2023/04/01 01:55:37;;;;;;;2.00;1.25;;;23.80;43.50;;;;;;6111200;28;82372;-61
2023/04/01 01:58:40;;;;;;;1.58;1.10;;;23.80;43.50;;;;;;6111779;28;83396;-60
2023/04/01 02:01:42;;;;;;;2.03;1.30;;;23.80;43.50;;;;;;6110730;28;83016;-61
2023/04/01 02:04:46;;;;;;;2.97;1.40;;;23.80;43.50;;;;;;6111566;28;82964;-61
2023/04/01 02:07:47;;;;;;;2.60;1.17;;;23.80;43.60;;;;;;6111003;28;83208;-65
2023/04/01 02:10:47;;;;;;;2.03;1.10;;;23.80;43.50;;;;;;6107040;28;83335;-65
2023/04/01 02:13:49;;;;;;;1.45;1.10;;;23.80;43.60;;;;;;6110124;28;80769;-67
2023/04/01 02:16:50;;;;;;;2.20;1.35;;;23.80;43.50;;;;;;6112127;28;80455;-67
2023/04/01 02:19:51;;;;;;;2.17;1.40;;;23.80;43.50;;;;;;6112110;28;83341;-66
2023/04/01 02:22:51;;;;;;;1.90;1.33;;;23.80;43.50;;;;;;6109675;28;84147;-66
2023/04/01 02:25:52;;;;;;;1.83;1.25;;;23.80;43.50;;;;;;6111334;28;82243;-60
2023/04/01 02:28:53;;;;;;;1.65;1.13;;;23.80;43.50;;;;;;6127601;28;80062;-61
2023/04/01 02:31:53;;;;;;;1.70;1.30;;;23.80;43.50;;;;;;6110285;28;82858;-61
2023/04/01 02:34:54;;;;;;;1.75;1.10;;;23.80;43.40;;;;;;6111078;28;84054;-62
2023/04/01 02:37:54;;;;;;;1.15;0.90;;;23.80;43.40;;;;;;6110682;28;83700;-63
2023/04/01 02:40:55;;;;;;;2.38;1.52;;;23.80;43.40;;;;;;6112519;28;81978;-63
2023/04/01 02:43:58;;;;;;;1.85;1.10;;;23.80;43.40;;;;;;6127185;28;81682;-64
2023/04/01 02:46:58;;;;;;;3.88;1.70;;;23.80;43.40;;;;;;6111808;28;83532;-64
2023/04/01 02:49:59;;;;;;;2.08;1.70;;;23.80;43.30;;;;;;6122892;28;81703;-61
2023/04/01 02:53:00;;;;;;;2.00;1.38;;;23.80;43.30;;;;;;6127804;28;81073;-61
2023/04/01 02:56:00;;;;;;;2.40;1.75;;;23.80;43.20;;;;;;6110865;28;82076;-62
2023/04/01 02:59:01;;;;;;;3.45;1.73;;;23.80;43.20;;;;;;6110796;28;82279;-62
2023/04/01 03:02:01;;;;;;;2.30;1.65;;;23.80;43.10;;;;;;6128000;28;82633;-66
2023/04/01 03:05:02;;;;;;;2.60;1.60;;;23.80;43.10;;;;;;6127926;28;80897;-66
2023/04/01 03:08:03;;;;;;;3.58;1.83;;;23.80;43.20;;;;;;6128893;28;81018;-67
2023/04/01 03:11:03;;;;;;;1.77;1.35;;;23.80;43.10;;;;;;6126612;28;80620;-65
2023/04/01 03:14:06;;;;;;;3.45;1.55;;;23.80;43.10;;;;;;6111236;28;81415;-66
2023/04/01 03:17:07;;;;;;;3.50;1.70;;;23.80;43.10;;;;;;6110935;28;82342;-65
2023/04/01 03:20:08;;;;;;;1.52;1.30;;;23.80;43.10;;;;;;6109236;28;83432;-59
2023/04/01 03:23:08;;;;;;;2.80;1.48;;;23.80;43.20;;;;;;6108975;28;83422;-63
2023/04/01 03:26:09;;;;;;;1.90;1.27;;;23.80;43.10;;;;;;6119713;28;82436;-60
2023/04/01 03:29:10;;;;;;;2.50;1.50;;;23.80;43.20;;;;;;6109016;28;83359;-59
2023/04/01 03:32:12;;;;;;;2.13;1.42;;;23.90;43.20;;;;;;6101447;28;83592;-61
2023/04/01 03:35:13;;;;;;;1.60;1.33;;;23.90;43.10;;;;;;6100180;28;82916;-61
2023/04/01 03:38:14;;;;;;;3.20;1.60;;;23.80;43.20;;;;;;6085546;28;83151;-70
2023/04/01 03:41:15;;;;;;;5.55;1.50;;;23.90;43.30;;;;;;6086624;28;83326;-73
2023/04/01 03:44:15;;;;;;;1.25;1.10;;;23.90;43.20;;;;;;6086442;28;83488;-74
2023/04/01 03:47:16;;;;;;;4.15;1.60;;;23.90;43.10;;;;;;6087211;28;83394;-75
2023/04/01 03:50:16;;;;;;;2.55;1.25;;;23.90;43.00;;;;;;6084559;28;81978;-72
2023/04/01 03:53:17;;;;;;;2.50;1.48;;;23.90;43.00;;;;;;6087019;28;83206;-76
2023/04/01 03:56:20;;;;;;;3.70;1.27;;;23.90;43.00;;;;;;6086786;28;83539;-74
2023/04/01 03:59:20;;;;;;;2.45;1.30;;;23.90;42.90;;;;;;6087362;28;80659;-74
2023/04/01 04:02:21;;;;;;;3.58;1.30;;;23.90;42.90;;;;;;6086336;28;81585;-69
2023/04/01 04:05:22;;;;;;;2.75;1.50;;;23.90;42.90;;;;;;6093082;28;82975;-73
2023/04/01 04:08:22;;;;;;;1.45;1.15;;;23.90;42.80;;;;;;6086124;28;83679;-73
2023/04/01 04:11:24;;;;;;;2.13;1.10;;;23.90;42.90;;;;;;6108857;28;87662;-72
2023/04/01 04:14:26;;;;;;;2.45;1.30;;;23.90;42.80;;;;;;6107965;28;82335;-65
2023/04/01 04:17:27;;;;;;;2.13;1.20;;;23.90;42.80;;;;;;6112156;28;82843;-71
2023/04/01 04:20:27;;;;;;;2.40;1.30;;;23.90;42.90;;;;;;6100164;28;82887;-66
2023/04/01 04:23:29;;;;;;;2.58;1.30;;;23.80;43.00;;;;;;6127288;28;80308;-65
2023/04/01 04:26:30;;;;;;;2.03;1.40;;;23.90;43.20;;;;;;6120255;28;83278;-67
2023/04/01 04:29:34;;;;;;;1.90;1.15;;;23.90;43.40;;;;;;6123306;28;83518;-65
2023/04/01 04:32:35;;;;;;;2.25;1.33;;;23.90;43.30;;;;;;6114877;28;81945;-66
2023/04/01 04:35:36;;;;;;;1.70;1.10;;;23.90;43.40;;;;;;6112092;28;81517;-67
2023/04/01 04:38:36;;;;;;;2.10;1.33;;;23.90;43.40;;;;;;6113628;28;83268;-66
2023/04/01 04:41:37;;;;;;;6.28;1.33;;;23.90;43.50;;;;;;6113647;28;82383;-67
2023/04/01 04:44:37;;;;;;;1.88;1.25;;;23.90;43.30;;;;;;6122020;28;81970;-61
2023/04/01 04:47:38;;;;;;;2.90;1.45;;;23.90;43.40;;;;;;6112160;28;81830;-62
2023/04/01 04:50:39;;;;;;;1.98;1.50;;;23.90;43.70;;;;;;6112959;28;80491;-61
2023/04/01 04:53:39;;;;;;;5.45;1.60;;;23.90;43.70;;;;;;6113676;28;83672;-61
2023/04/01 04:56:40;;;;;;;7.53;1.30;;;23.90;43.70;;;;;;6113061;28;83212;-62
2023/04/01 04:59:42;;;;;;;2.20;1.00;;;23.90;43.80;;;;;;6104185;28;83164;-62
2023/04/01 05:03:09;;;;;;;;;;;24.00;43.90;;;;;;6101917;28;81660;-62
2023/04/01 05:06:10;;;;;;;3.22;1.67;;;23.90;43.80;;;;;;6108130;28;79168;-62
2023/04/01 05:09:10;;;;;;;1.40;1.30;;;24.00;43.80;;;;;;6090619;28;88335;-62
2023/04/01 05:12:12;;;;;;;3.00;1.40;;;24.00;43.80;;;;;;6096305;28;85164;-62
2023/04/01 05:15:33;;;;;;;4.10;1.77;;;24.00;43.90;;;;;;6126554;28;81096;-58
2023/04/01 05:18:35;;;;;;;5.35;1.50;;;23.90;44.00;;;;;;6110070;28;82437;-58
2023/04/01 05:21:35;;;;;;;3.38;1.30;;;23.90;44.00;;;;;;6127670;28;80242;-58
2023/04/01 05:24:36;;;;;;;1.95;1.40;;;23.90;44.20;;;;;;6117762;28;82218;-58
2023/04/01 05:27:36;;;;;;;3.25;1.40;;;23.90;44.30;;;;;;6112566;28;83456;-63
2023/04/01 05:30:37;;;;;;;1.88;1.40;;;23.90;44.30;;;;;;6114832;28;82970;-61
2023/04/01 05:34:03;;;;;;;;;;;23.90;44.60;;;;;;6097026;28;82242;-61
2023/04/01 05:37:04;;;;;;;6.03;1.58;;;23.90;44.60;;;;;;6101854;28;83235;-64
2023/04/01 05:40:05;;;;;;;4.72;1.73;;;24.00;44.50;;;;;;6096432;28;80949;-60
2023/04/01 05:43:05;;;;;;;2.20;1.10;;;24.00;44.60;;;;;;6099317;28;83379;-62
2023/04/01 05:46:06;;;;;;;3.30;1.08;;;23.90;45.50;;;;;;6109726;28;83377;-59
2023/04/01 05:49:23;;;;;;;5.75;1.20;;;23.90;45.00;;;;;;6099607;28;86160;-59
2023/04/01 05:52:25;;;;;;;6.35;1.50;;;24.00;44.70;;;;;;6112492;28;82423;-59
2023/04/01 05:55:25;;;;;;;1.85;1.30;;;24.00;44.60;;;;;;6109361;28;83668;-59
2023/04/01 05:58:26;;;;;;;2.33;1.42;;;24.00;44.30;;;;;;6107929;28;83412;-58
2023/04/01 06:01:27;;;;;;;4.85;1.17;;;24.00;45.00;;;;;;6108603;28;85628;-60
2023/04/01 06:04:27;;;;;;;16.75;1.50;;;24.00;47.30;;;;;;6108615;28;83593;-74
2023/04/01 06:07:28;;;;;;;1.80;1.20;;;24.10;46.80;;;;;;6109817;28;82885;-61
2023/04/01 06:10:28;;;;;;;3.95;1.35;;;24.10;46.30;;;;;;6125632;28;81777;-62
2023/04/01 06:13:29;;;;;;;2.92;1.55;;;24.10;46.20;;;;;;6125827;28;81179;-63
2023/04/01 06:16:29;;;;;;;4.13;1.25;;;24.10;46.30;;;;;;6126945;28;81529;-63
2023/04/01 06:19:30;;;;;;;2.88;1.33;;;24.10;46.10;;;;;;6108951;28;83139;-63
2023/04/01 06:22:31;;;;;;;2.90;1.40;;;24.10;45.80;;;;;;6104685;28;81836;-63
2023/04/01 06:25:31;;;;;;;2.65;1.17;;;24.10;45.40;;;;;;6099493;28;83536;-63
2023/04/01 06:28:33;;;;;;;5.07;1.30;;;24.00;45.40;;;;;;6089742;28;82608;-61
2023/04/01 06:31:34;;;;;;;3.42;1.20;;;24.00;46.30;;;;;;6149360;28;82314;-63
2023/04/01 06:34:34;;;;;;;2.20;1.38;;;24.00;46.80;;;;;;6149012;28;81346;-63
2023/04/01 06:37:35;;;;;;;3.38;1.55;;;24.10;47.40;;;;;;6134449;28;82951;-62
2023/04/01 06:40:36;;;;;;;2.58;1.38;;;24.10;47.50;;;;;;6101299;28;89214;-65
2023/04/01 06:43:38;;;;;;;3.28;1.40;;;24.10;47.50;;;;;;6099398;28;82895;-68
2023/04/01 06:47:14;;;;;;;2.22;1.23;;;24.10;47.70;;;;;;6132201;28;84246;-61
2023/04/01 06:50:41;;;;;;;;;;;24.10;47.70;;;;;;6120120;28;81127;-64
2023/04/01 06:54:01;;;;;;;2.92;1.85;;;24.10;47.80;;;;;;6134811;28;80074;-67
2023/04/01 06:57:21;;;;;;;10.48;2.10;;;24.10;48.00;;;;;;6145052;28;82732;-67
2023/04/01 07:00:22;;;;;;;4.93;1.92;;;24.10;47.90;;;;;;6144274;28;83104;-66
2023/04/01 07:03:22;;;;;;;7.70;2.00;;;24.10;48.10;;;;;;6100771;28;83265;-64
2023/04/01 07:06:23;;;;;;;2.33;1.60;;;24.10;48.30;;;;;;6138060;28;83619;-65
2023/04/01 07:09:28;;;;;;;4.53;1.50;;;24.20;48.50;;;;;;6128478;28;82008;-70
2023/04/01 07:13:00;;;;;;;2.95;1.60;;;24.10;48.40;;;;;;6106203;28;80958;-66
2023/04/01 07:16:21;;;;;;;4.85;2.10;;;24.20;48.10;;;;;;6131322;28;87601;-65
2023/04/01 07:19:22;;;;;;;2.35;1.42;;;24.10;47.90;;;;;;6131173;28;82453;-66
2023/04/01 07:22:44;;;;;;;2.35;1.55;;;24.20;47.80;;;;;;6137405;28;81151;-66
2023/04/01 07:25:55;;;;;;;3.60;1.90;;;24.20;47.50;;;;;;6140858;28;83599;-66
2023/04/01 07:29:14;;;;;;;3.33;1.60;;;24.10;47.40;;;;;;6137741;28;82845;-66
2023/04/01 07:32:23;;;;;;;3.47;1.70;;;24.10;47.30;;;;;;6084682;28;83248;-65
2023/04/01 07:35:24;;;;;;;1.42;1.33;;;24.10;47.20;;;;;;6097489;28;85287;-65
2023/04/01 07:38:25;;;;;;;3.22;1.67;;;24.10;47.20;;;;;;6082367;28;82792;-64
2023/04/01 07:41:25;;;;;;;2.95;1.70;;;24.20;47.50;;;;;;6108510;28;81852;-65
2023/04/01 07:44:26;;;;;;;2.13;1.42;;;24.10;47.50;;;;;;6095553;28;83559;-64
2023/04/01 07:47:26;;;;;;;2.22;1.50;;;24.10;47.50;;;;;;6104955;28;82859;-60
2023/04/01 07:50:27;;;;;;;7.22;1.77;;;24.10;47.60;;;;;;6126266;28;80894;-63
2023/04/01 07:53:28;;;;;;;2.55;1.75;;;24.10;47.50;;;;;;6088610;28;81328;-59
2023/04/01 07:56:30;;;;;;;5.72;1.70;;;24.10;47.30;;;;;;6077919;28;81208;-60
2023/04/01 07:59:31;;;;;;;7.07;1.63;;;24.20;47.60;;;;;;6081379;28;82310;-59
2023/04/01 08:02:34;;;;;;;4.97;1.77;;;24.20;47.80;;;;;;6100213;28;82726;-60
2023/04/01 08:05:35;;;;;;;2.80;1.40;;;24.20;47.60;;;;;;6110571;28;85590;-60
2023/04/01 08:08:37;;;;;;;2.72;1.48;;;24.20;47.80;;;;;;6111914;28;82720;-60
2023/04/01 08:12:10;;;;;;;7.82;2.20;;;24.30;47.60;;;;;;6091950;28;81541;-57
2023/04/01 08:15:29;;;;;;;3.00;1.63;;;24.20;47.90;;;;;;6125230;28;80917;-58
2023/04/01 08:18:55;;;;;;;2.58;1.30;;;24.20;46.90;;;;;;6117821;28;81530;-59
2023/04/01 08:21:56;;;;;;;9.32;1.40;;;24.20;46.60;;;;;;6120021;28;83093;-60
2023/04/01 08:24:57;;;;;;;2.25;1.10;;;24.30;46.40;;;;;;6121752;28;83054;-57
2023/04/01 08:27:58;;;;;;;3.63;1.38;;;24.30;46.30;;;;;;6121974;28;82847;-60
2023/04/01 08:30:58;;;;;;;2.35;1.17;;;24.30;46.20;;;;;;6120296;28;82937;-65
2023/04/01 08:33:59;;;;;;;2.53;1.15;;;24.30;46.30;;;;;;6123538;28;83409;-66
2023/04/01 08:37:00;;;;;;;5.95;1.23;;;24.40;46.80;;;;;;6120526;28;82478;-71
2023/04/01 08:40:01;;;;;;;3.75;1.88;;;24.40;46.20;;;;;;6124944;28;81832;-69
2023/04/01 08:43:02;;;;;;;4.05;1.23;;;24.30;46.20;;;;;;6117330;28;81767;-71
2023/04/01 08:46:03;;;;;;;2.88;1.45;;;24.30;46.30;;;;;;6115843;28;82809;-73
2023/04/01 08:49:04;;;;;;;2.35;1.52;;;24.30;46.50;;;;;;6126891;28;81175;-74
2023/04/01 08:52:04;;;;;;;4.80;1.90;;;24.30;46.50;;;;;;6120408;28;83351;-61
2023/04/01 08:55:05;;;;;;;2.67;1.45;;;24.30;46.50;;;;;;6124922;28;83024;-61
2023/04/01 08:58:29;;;;;;;2.10;1.30;;;24.30;46.40;;;;;;6122281;28;86472;-61
2023/04/01 09:01:53;;;;;;;3.70;1.20;;;24.30;46.40;;;;;;6115293;28;86999;-61
2023/04/01 09:05:12;;;;;;;2.38;1.30;;;24.30;46.40;;;;;;6126962;28;80441;-60
2023/04/01 09:08:13;;;;;;;2.13;1.05;;;24.30;46.40;;;;;;6120482;28;83408;-60
2023/04/01 09:11:13;;;;;;;2.13;1.25;;;24.30;46.30;;;;;;6130815;28;83527;-61
2023/04/01 09:14:33;;;;;;;8.50;1.45;;;24.30;46.20;;;;;;6129752;28;81089;-60
2023/04/01 09:17:47;;;;;;;3.10;1.58;;;24.40;46.00;;;;;;6109857;28;81484;-58
2023/04/01 09:20:48;;;;;;;1.40;1.08;;;24.40;45.80;;;;;;6129519;28;84478;-60
2023/04/01 09:23:49;;;;;;;8.25;1.58;;;24.50;45.60;;;;;;6125521;28;83307;-59
2023/04/01 09:26:50;;;;;;;5.65;1.27;;;24.50;45.50;;;;;;6129641;28;82710;-58
2023/04/01 09:29:50;;;;;;;4.75;1.55;;;24.50;45.50;;;;;;6130003;28;83341;-59
2023/04/01 09:32:51;;;;;;;4.75;1.45;;;24.40;45.40;;;;;;6130090;28;83889;-59
2023/04/01 09:35:56;;;;;;;2.88;1.40;;;24.40;45.30;;;;;;6128238;28;84861;-59
2023/04/01 09:38:56;;;;;;;9.20;1.77;;;24.50;45.30;;;;;;6127036;28;83429;-59
2023/04/01 09:41:57;;;;;;;8.88;1.50;;;24.60;45.20;;;;;;6129512;28;83636;-59
2023/04/01 09:45:07;;;;;;;9.50;1.38;;;24.50;45.00;;;;;;6127365;28;82871;-63
2023/04/01 09:48:08;;;;;;;1.58;1.15;;;24.60;44.40;;;;;;6130410;28;80389;-62
2023/04/01 09:51:09;;;;;;;2.58;1.63;;;24.40;42.80;;;;;;6128437;28;83469;-62
2023/04/01 09:54:09;;;;;;;4.80;1.65;;;24.30;42.60;;;;;;6127750;28;83273;-60
2023/04/01 09:57:10;;;;;;;6.45;1.73;;;24.20;42.40;;;;;;6129333;28;82765;-56
2023/04/01 10:00:15;;;;;;;3.85;1.60;;;24.10;42.10;;;;;;6123026;28;80655;-66
2023/04/01 10:03:29;;;;;;;3.22;1.45;;;24.10;42.20;;;;;;6128034;28;82849;-61
2023/04/01 10:06:30;;;;;;;5.35;1.50;;;24.00;42.40;;;;;;6126548;28;81992;-62
2023/04/01 10:09:31;;;;;;;1.80;1.50;;;24.00;42.80;;;;;;6127957;28;84121;-61
2023/04/01 10:12:32;;;;;;;2.30;1.30;;;24.00;43.30;;;;;;6125189;28;83275;-61
2023/04/01 10:15:32;;;;;;;4.93;1.80;;;24.00;43.70;;;;;;6129240;28;80802;-62
2023/04/01 10:18:33;;;;;;;3.63;1.77;;;24.00;44.00;;;;;;6126216;28;86053;-61
2023/04/01 10:21:34;;;;;;;2.13;1.42;;;24.00;44.20;;;;;;6124176;28;82106;-59
2023/04/01 10:24:34;;;;;;;2.05;1.35;;;24.00;44.50;;;;;;6128821;28;80507;-59
2023/04/01 10:27:39;;;;;;;4.43;1.48;;;24.00;44.50;;;;;;6125674;28;83330;-61
2023/04/01 10:30:39;;;;;;;3.42;1.70;;;23.90;44.60;;;;;;6142036;28;80398;-61
2023/04/01 10:33:45;;;;;;;3.28;1.77;;;23.90;44.60;;;;;;6134923;28;82760;-59
2023/04/01 10:36:46;;;;;;;6.07;1.75;;;23.90;44.60;;;;;;6135103;28;82223;-59
2023/04/01 10:39:47;;;;;;;17.05;11.43;;;23.90;44.50;;;;;;6134374;28;81748;-71
2023/04/01 10:42:56;;;;;;;22.75;12.88;;;23.80;44.20;;;;;;6099288;28;82798;-70
2023/04/01 10:46:23;;;;;;;23.55;15.10;;;23.80;43.80;;;;;;6110978;28;88145;-71
2023/04/01 10:49:25;;;;;;;28.23;14.25;;;23.70;43.90;;;;;;6136539;28;85523;-70
2023/04/01 10:52:30;;;;;;;20.43;12.67;;;23.70;43.60;;;;;;6136334;28;85637;-72
2023/04/01 10:55:49;;;;;;;10.85;7.82;;;23.60;43.60;;;;;;6138327;28;83167;-70
2023/04/01 10:59:08;;;;;;;12.25;7.30;;;23.60;43.20;;;;;;6152445;28;82618;-62
2023/04/01 11:02:47;;;;;;;16.00;7.03;;;23.60;43.10;;;;;;6073631;28;81309;-62
2023/04/01 11:06:06;;;;;;;9.05;5.40;;;23.60;43.10;;;;;;6075800;28;80720;-62
2023/04/01 11:09:07;;;;;;;8.95;5.22;;;23.70;43.20;;;;;;6124820;28;83674;-63
2023/04/01 11:12:07;;;;;;;8.68;4.40;;;23.70;42.90;;;;;;6144723;28;82940;-62
2023/04/01 11:15:09;;;;;;;11.32;4.60;;;23.70;43.00;;;;;;6151270;28;80331;-62
2023/04/01 11:18:09;;;;;;;7.03;3.95;;;23.70;42.90;;;;;;6134060;28;83409;-59
2023/04/01 11:21:10;;;;;;;5.85;3.20;;;23.80;42.80;;;;;;6138721;28;84455;-59
2023/04/01 11:24:11;;;;;;;5.22;3.38;;;23.70;42.80;;;;;;6145797;28;80588;-61
2023/04/01 11:27:20;;;;;;;5.03;3.03;;;23.70;43.50;;;;;;6131269;28;83341;-61
2023/04/01 11:30:23;;;;;;;4.60;2.67;;;23.70;44.80;;;;;;6123697;28;83354;-59
2023/04/01 11:33:24;;;;;;;5.22;2.72;;;23.70;45.30;;;;;;6146347;28;83283;-60
2023/04/01 11:36:24;;;;;;;6.28;2.10;;;23.70;47.50;;;;;;6127587;28;84361;-59
2023/04/01 11:39:25;;;;;;;3.83;2.20;;;23.70;47.60;;;;;;6146896;28;83321;-60
2023/04/01 11:42:46;;;;;;;4.70;2.15;;;23.80;47.40;;;;;;6125183;28;86494;-62
2023/04/01 11:46:05;;;;;;;4.75;2.45;;;23.80;48.80;;;;;;6147699;28;80533;-59
2023/04/01 11:49:06;;;;;;;7.95;2.35;;;23.90;50.20;;;;;;6144238;28;83719;-57
2023/04/01 11:52:11;;;;;;;6.43;1.83;;;24.00;49.40;;;;;;6146605;28;88295;-58
2023/04/01 11:55:11;;;;;;;4.35;2.15;;;24.00;49.60;;;;;;6147933;28;80668;-59
2023/04/01 11:58:12;;;;;;;6.55;1.90;;;23.90;49.00;;;;;;6145525;28;81131;-58
2023/04/01 12:01:13;;;;;;;1.88;1.70;;;23.80;49.00;;;;;;6139179;28;83413;-58
2023/04/01 12:04:13;;;;;;;6.45;1.95;;;23.70;49.70;;;;;;6147087;28;82537;-59
2023/04/01 12:07:14;;;;;;;1.75;1.50;;;23.70;50.70;;;;;;6146792;28;81078;-58
2023/04/01 12:10:15;;;;;;;4.75;1.90;;;23.60;49.70;;;;;;6147053;28;82194;-59
2023/04/01 12:13:15;;;;;;;5.10;1.90;;;23.50;49.60;;;;;;6148463;28;80418;-59
2023/04/01 12:16:16;;;;;;;8.98;2.67;;;23.50;49.60;;;;;;6145691;28;80937;-61
2023/04/01 12:19:16;;;;;;;8.80;2.70;;;23.40;47.90;;;;;;6146845;28;80529;-60
2023/04/01 12:22:17;;;;;;;2.70;2.13;;;23.40;50.00;;;;;;6144516;28;81178;-59
2023/04/01 12:25:18;;;;;;;5.68;2.33;;;23.40;48.70;;;;;;6146575;28;83767;-59
2023/04/01 12:28:18;;;;;;;4.50;1.80;;;23.40;48.90;;;;;;6147356;28;81147;-59
2023/04/01 12:31:19;;;;;;;2.92;1.80;;;23.50;50.10;;;;;;6125523;28;80808;-71
2023/04/01 12:34:19;;;;;;;6.50;2.28;;;23.50;49.60;;;;;;6104939;28;82809;-73
2023/04/01 12:37:20;;;;;;;5.00;2.28;;;23.50;49.60;;;;;;6119228;28;85505;-71
2023/04/01 12:40:21;;;;;;;3.88;1.88;;;23.50;50.00;;;;;;6112971;28;84073;-60
2023/04/01 12:43:21;;;;;;;4.45;2.50;;;23.50;49.90;;;;;;6114942;28;82694;-64
2023/04/01 12:46:22;;;;;;;4.78;2.13;;;23.50;49.90;;;;;;6120215;28;80889;-65
2023/04/01 12:49:22;;;;;;;3.70;2.10;;;23.60;51.70;;;;;;6107847;28;83191;-66
2023/04/01 12:52:23;;;;;;;11.93;2.38;;;23.50;48.40;;;;;;6115411;28;83526;-60
2023/04/01 12:55:23;;;;;;;3.13;2.00;;;23.50;52.00;;;;;;6115024;28;83417;-60
2023/04/01 12:58:24;;;;;;;4.28;2.05;;;23.50;50.50;;;;;;6116107;28;87611;-64
2023/04/01 13:01:25;;;;;;;3.83;2.13;;;23.50;49.70;;;;;;6095884;28;84440;-61
2023/04/01 13:04:25;;;;;;;8.13;2.45;;;23.50;51.00;;;;;;6103463;28;87738;-67
2023/04/01 13:07:26;;;;;;;3.13;1.95;;;23.40;51.30;;;;;;6103709;28;82154;-67
2023/04/01 13:10:26;;;;;;;8.38;2.20;;;23.40;49.20;;;;;;6105531;28;82146;-65
2023/04/01 13:13:27;;;;;;;4.22;2.03;;;23.40;50.80;;;;;;6104646;28;84370;-62
2023/04/01 13:16:28;;;;;;;4.75;2.13;;;23.40;50.00;;;;;;6102179;28;81664;-62
2023/04/01 13:19:28;;;;;;;3.20;2.05;;;23.10;51.30;;;;;;6105961;28;81929;-61
2023/04/01 13:22:29;;;;;;;5.40;2.85;;;23.00;49.80;;;;;;6102517;28;81525;-60
2023/04/01 13:25:29;;;;;;;6.60;3.15;;;22.70;50.50;;;;;;6107535;28;82565;-61
2023/04/01 13:28:30;;;;;;;7.50;3.03;;;22.70;50.90;;;;;;6107396;28;81682;-60
2023/04/01 13:31:30;;;;;;;5.55;2.67;;;22.70;49.50;;;;;;6101126;28;81739;-59
2023/04/01 13:34:31;;;;;;;4.60;2.50;;;22.50;51.50;;;;;;6107308;28;81261;-60
2023/04/01 13:37:31;;;;;;;4.78;2.65;;;22.70;53.50;;;;;;6107058;28;81046;-60
2023/04/01 13:40:32;;;;;;;2.53;2.10;;;22.80;53.50;;;;;;6107134;28;82402;-57
2023/04/01 13:43:33;;;;;;;7.65;2.50;;;22.90;53.60;;;;;;6103476;28;81355;-59
2023/04/01 13:46:34;;;;;;;6.05;2.03;;;23.00;55.00;;;;;;6086990;28;82386;-60
2023/04/01 13:49:34;;;;;;;4.63;2.50;;;23.00;54.40;;;;;;6104920;28;81862;-60
2023/04/01 13:52:35;;;;;;;6.40;2.22;;;23.00;54.70;;;;;;6103377;28;81495;-59
2023/04/01 13:55:35;;;;;;;3.50;2.00;;;23.00;52.90;;;;;;6107021;28;84849;-63
2023/04/01 13:58:36;;;;;;;4.78;2.08;;;23.10;54.00;;;;;;6107733;28;81754;-62
2023/04/01 14:01:36;;;;;;;9.75;2.22;;;23.10;55.90;;;;;;6098892;28;81786;-62
2023/04/01 14:04:37;;;;;;;3.20;1.90;;;23.10;53.40;;;;;;6051872;28;82948;-60
2023/04/01 14:07:37;;;;;;;13.52;1.50;;;23.00;54.30;;;;;;6090494;28;81734;-63
2023/04/01 14:10:38;;;;;;;5.07;2.17;;;22.90;52.30;;;;;;6106002;28;81797;-65
2023/04/01 14:13:38;;;;;;;6.65;2.20;;;22.70;51.30;;;;;;6101010;28;83743;-67
2023/04/01 14:16:39;;;;;;;4.43;2.00;;;22.60;52.00;;;;;;6106727;28;82055;-65
2023/04/01 14:19:40;;;;;;;3.22;1.90;;;22.60;52.70;;;;;;6085629;28;82252;-67
2023/04/01 14:22:40;;;;;;;6.65;1.67;;;22.60;52.50;;;;;;6103170;28;81618;-67
2023/04/01 14:25:41;;;;;;;2.53;1.75;;;22.70;52.20;;;;;;6113785;28;82092;-67
2023/04/01 14:28:41;;;;;;;4.55;2.00;;;22.70;52.10;;;;;;6111991;28;85012;-68
2023/04/01 14:31:42;;;;;;;5.53;2.33;;;22.70;51.30;;;;;;6126440;28;81250;-69
2023/04/01 14:34:42;;;;;;;3.08;1.90;;;22.70;52.00;;;;;;6110871;28;81137;-68
2023/04/01 14:37:43;;;;;;;6.72;2.55;;;22.60;53.70;;;;;;6110278;28;81817;-67
2023/04/01 14:40:43;;;;;;;3.88;2.70;;;22.60;51.60;;;;;;6102454;28;81403;-65
2023/04/01 14:43:44;;;;;;;6.20;2.55;;;22.60;51.10;;;;;;6108222;28;82907;-67
2023/04/01 14:46:45;;;;;;;6.10;2.42;;;22.60;50.50;;;;;;6107376;28;82326;-68
2023/04/01 14:49:45;;;;;;;3.00;2.00;;;22.40;50.70;;;;;;6108210;28;84537;-69
2023/04/01 14:52:46;;;;;;;4.40;3.00;;;22.30;50.50;;;;;;6100374;28;81057;-68
2023/04/01 14:55:46;;;;;;;5.88;2.80;;;22.30;50.90;;;;;;6104994;28;81705;-64
2023/04/01 14:58:47;;;;;;;3.83;2.25;;;22.30;50.80;;;;;;6104696;28;81418;-65
2023/04/01 15:01:48;;;;;;;6.78;3.28;;;22.30;51.40;;;;;;6117080;28;80287;-65
2023/04/01 15:04:48;;;;;;;6.95;2.20;;;22.30;50.90;;;;;;6122809;28;80627;-66
2023/04/01 15:07:49;;;;;;;4.88;2.85;;;22.20;52.80;;;;;;6118703;28;86690;-67
2023/04/01 15:10:49;;;;;;;6.90;3.30;;;22.40;52.60;;;;;;6116709;28;80938;-65
2023/04/01 15:13:50;;;;;;;7.60;3.13;;;22.50;52.60;;;;;;6108577;28;80840;-68
2023/04/01 15:16:51;;;;;;;5.32;2.60;;;22.60;52.50;;;;;;6108169;28;81229;-66
2023/04/01 15:19:51;;;;;;;5.95;2.60;;;22.60;53.40;;;;;;6109081;28;80783;-67
2023/04/01 15:22:52;;;;;;;7.25;2.60;;;22.60;52.80;;;;;;6116263;28;85241;-68
2023/04/01 15:25:52;;;;;;;6.05;2.88;;;22.70;53.10;;;;;;6122940;28;81034;-69
2023/04/01 15:28:53;;;;;;;6.35;2.78;;;22.70;53.10;;;;;;6116732;28;80938;-72
2023/04/01 15:31:57;;;;;;;7.35;3.05;;;22.80;53.30;;;;;;6147266;28;81378;-68
2023/04/01 15:34:58;;;;;;;4.43;2.60;;;22.80;53.70;;;;;;6152003;28;81353;-68
2023/04/01 15:37:58;;;;;;;6.78;2.70;;;22.90;53.90;;;;;;6150977;28;85183;-67
2023/04/01 15:40:59;;;;;;;7.03;2.47;;;22.90;53.60;;;;;;6145870;28;81632;-66
2023/04/01 15:44:00;;;;;;;6.15;2.90;;;23.00;53.80;;;;;;6145678;28;80454;-66
2023/04/01 15:47:01;;;;;;;4.28;2.60;;;23.00;54.30;;;;;;6148176;28;80132;-66
2023/04/01 15:50:01;;;;;;;5.13;3.08;;;23.00;54.30;;;;;;6150192;28;81982;-65
2023/04/01 15:53:02;;;;;;;7.47;3.05;;;23.10;54.60;;;;;;6144710;28;81227;-65